createdAt,value
2023-01-12T00:02:00.226Z,97.10
2023-01-12T00:04:30.669Z,97.74
2023-01-12T00:07:01.830Z,98.24
2023-01-12T00:09:29.031Z,98.74
2023-01-12T00:11:56.038Z,98.71
2023-01-12T00:14:23.037Z,98.49
2023-01-12T00:16:50.059Z,98.71
2023-01-12T00:19:20.052Z,99.15
2023-01-12T00:21:59.399Z,99.52
2023-01-12T00:24:33.834Z,100.00
2023-01-12T00:27:06.590Z,100.00
2023-01-12T00:29:34.387Z,100.00
2023-01-12T00:32:01.563Z,100.00
2023-01-12T00:34:29.781Z,100.00
2023-01-12T00:36:59.600Z,100.00
2023-01-12T00:39:26.966Z,100.00
2023-01-12T00:42:12.541Z,100.00
2023-01-12T00:44:58.148Z,100.00
2023-01-12T00:47:25.511Z,100.00
2023-01-12T00:49:53.315Z,100.00
2023-01-12T00:52:30.315Z,100.00
2023-01-12T00:54:58.665Z,100.00
2023-01-12T00:57:25.779Z,100.00
2023-01-12T00:59:55.489Z,100.00
2023-01-12T01:02:23.276Z,100.00
2023-01-12T01:04:51.150Z,100.00
2023-01-12T01:07:18.720Z,100.00
2023-01-12T01:09:45.904Z,100.00
2023-01-12T01:12:13.283Z,100.00
2023-01-12T01:14:40.340Z,100.00
2023-01-12T01:17:07.362Z,100.00
2023-01-12T01:19:34.413Z,100.00
2023-01-12T01:22:01.412Z,100.00
2023-01-12T01:24:28.463Z,100.00
2023-01-12T01:26:55.478Z,100.00
2023-01-12T01:29:22.659Z,100.00
2023-01-12T01:31:49.633Z,100.00
2023-01-12T01:34:16.781Z,100.00
2023-01-12T01:36:43.823Z,100.00
2023-01-12T01:39:10.908Z,100.00
2023-01-12T01:41:38.173Z,100.00
2023-01-12T01:44:29.661Z,100.00
2023-01-12T01:47:08.149Z,100.00
2023-01-12T01:49:43.470Z,100.00
2023-01-12T01:52:18.528Z,100.00
2023-01-12T01:55:07.197Z,100.00
2023-01-12T01:57:45.350Z,100.00
2023-01-12T02:00:13.565Z,100.00
2023-01-12T02:02:43.573Z,100.00
2023-01-12T02:05:11.355Z,100.00
2023-01-12T02:07:39.096Z,100.00
2023-01-12T02:10:06.688Z,100.00
2023-01-12T02:12:52.567Z,100.00
2023-01-12T02:15:39.639Z,100.00
2023-01-12T02:18:29.179Z,100.00
2023-01-12T02:21:02.099Z,100.00
2023-01-12T02:24:05.854Z,100.00
2023-01-12T02:26:51.973Z,100.00
2023-01-12T02:30:25.904Z,100.00
2023-01-12T02:33:20.830Z,100.00
2023-01-12T02:36:37.328Z,100.00
2023-01-12T02:39:39.120Z,100.00
2023-01-12T02:42:42.339Z,100.00
2023-01-12T02:45:25.848Z,100.00
2023-01-12T02:48:04.833Z,100.00
2023-01-12T02:50:57.960Z,100.00
2023-01-12T02:53:43.517Z,100.00
2023-01-12T02:56:14.597Z,100.00
2023-01-12T02:58:48.462Z,100.00
2023-01-12T03:01:19.200Z,100.00
2023-01-12T03:03:49.107Z,100.00
2023-01-12T03:06:18.193Z,100.00
2023-01-12T03:08:48.805Z,100.00
2023-01-12T03:11:23.306Z,100.00
2023-01-12T03:13:57.150Z,100.00
2023-01-12T03:16:32.662Z,100.00
2023-01-12T03:19:09.840Z,100.00
2023-01-12T03:21:53.007Z,100.00
2023-01-12T03:24:29.198Z,100.00
2023-01-12T03:27:06.272Z,100.00
2023-01-12T03:29:46.399Z,100.00
2023-01-12T03:32:13.530Z,100.00
2023-01-12T03:34:40.679Z,100.00
2023-01-12T03:37:33.173Z,100.00
2023-01-12T03:40:17.345Z,100.00
2023-01-12T03:42:55.619Z,100.00
2023-01-12T03:45:39.931Z,100.00
2023-01-12T03:48:24.923Z,100.00
2023-01-12T03:50:57.947Z,100.00
2023-01-12T03:53:25.198Z,100.00
2023-01-12T03:56:00.411Z,100.00
2023-01-12T03:58:27.638Z,100.00
2023-01-12T04:00:54.759Z,100.00
2023-01-12T04:03:22.145Z,100.00
2023-01-12T04:05:49.207Z,100.00
2023-01-12T04:08:17.251Z,100.00
2023-01-12T04:10:44.564Z,100.00
2023-01-12T04:13:11.652Z,100.00
2023-01-12T04:15:42.474Z,100.00
2023-01-12T04:18:11.483Z,100.00
2023-01-12T04:20:39.643Z,100.00
2023-01-12T04:23:07.302Z,100.00
2023-01-12T04:25:35.156Z,100.00
2023-01-12T04:28:03.231Z,100.00
2023-01-12T04:30:32.827Z,100.00
2023-01-12T04:33:05.989Z,100.00
2023-01-12T04:35:33.026Z,100.00
2023-01-12T04:38:08.883Z,100.00
2023-01-12T04:40:35.904Z,100.00
2023-01-12T04:43:08.433Z,100.00
2023-01-12T04:45:39.849Z,100.00
2023-01-12T04:48:12.710Z,100.00
2023-01-12T04:50:41.446Z,100.00
2023-01-12T04:53:12.293Z,100.00
2023-01-12T04:55:42.919Z,100.00
2023-01-12T04:58:10.515Z,100.00
2023-01-12T05:00:37.619Z,100.00
2023-01-12T05:03:04.737Z,100.00
2023-01-12T05:05:33.928Z,100.00
2023-01-12T05:08:21.762Z,100.00
2023-01-12T05:11:01.083Z,100.00
2023-01-12T05:13:31.410Z,100.00
2023-01-12T05:16:12.506Z,100.00
2023-01-12T05:18:39.509Z,100.00
2023-01-12T05:21:06.566Z,100.00
2023-01-12T05:23:33.709Z,100.00
2023-01-12T05:26:02.419Z,100.00
2023-01-12T05:28:29.972Z,100.00
2023-01-12T05:31:11.033Z,100.00
2023-01-12T05:33:42.014Z,100.00
2023-01-12T05:36:13.265Z,100.00
2023-01-12T05:38:40.537Z,100.00
2023-01-12T05:41:10.332Z,100.00
2023-01-12T05:43:53.036Z,100.00
2023-01-12T05:46:34.463Z,100.00
2023-01-12T05:49:01.480Z,100.00
2023-01-12T05:51:30.898Z,100.00
2023-01-12T05:53:58.215Z,100.00
2023-01-12T05:56:28.070Z,100.00
2023-01-12T05:58:59.160Z,100.00
2023-01-12T06:01:28.373Z,100.00
2023-01-12T06:03:58.979Z,100.00
2023-01-12T06:06:31.383Z,100.00
2023-01-12T06:09:00.281Z,100.00
2023-01-12T06:11:46.147Z,100.00
2023-01-12T06:14:13.151Z,100.00
2023-01-12T06:16:42.750Z,100.00
2023-01-12T06:19:12.795Z,100.00
2023-01-12T06:21:40.616Z,100.00
2023-01-12T06:24:08.451Z,100.00
2023-01-12T06:26:35.456Z,100.00
2023-01-12T06:29:05.538Z,100.00
2023-01-12T06:31:33.127Z,100.00
2023-01-12T06:34:00.209Z,100.00
2023-01-12T06:36:27.221Z,100.00
2023-01-12T06:38:54.224Z,100.00
2023-01-12T06:41:40.093Z,100.00
2023-01-12T06:44:07.129Z,100.00
2023-01-12T06:46:34.199Z,100.00
2023-01-12T06:49:01.270Z,100.00
2023-01-12T06:51:28.493Z,100.00
2023-01-12T06:53:55.932Z,100.00
2023-01-12T06:56:23.076Z,100.00
2023-01-12T06:58:50.102Z,100.00
2023-01-12T07:01:17.510Z,100.00
2023-01-12T07:03:44.989Z,100.00
2023-01-12T07:06:12.901Z,100.00
2023-01-12T07:08:39.989Z,100.00
2023-01-12T07:11:15.228Z,100.00
2023-01-12T07:13:42.613Z,100.00
2023-01-12T07:16:09.877Z,100.00
2023-01-12T07:18:36.934Z,100.00
2023-01-12T07:21:10.144Z,100.00
2023-01-12T07:23:37.942Z,100.00
2023-01-12T07:26:05.225Z,100.00
2023-01-12T07:28:33.842Z,100.00
2023-01-12T07:31:06.148Z,100.00
2023-01-12T07:33:34.517Z,100.00
2023-01-12T07:36:02.640Z,100.00
2023-01-12T07:38:31.296Z,100.00
2023-01-12T07:41:04.984Z,100.00
2023-01-12T07:43:33.627Z,100.00
2023-01-12T07:46:01.125Z,100.00
2023-01-12T07:48:28.294Z,100.00
2023-01-12T07:50:58.609Z,100.00
2023-01-12T07:53:25.698Z,100.00
2023-01-12T07:55:52.681Z,100.00
2023-01-12T07:58:19.715Z,100.00
2023-01-12T08:00:46.701Z,100.00
2023-01-12T08:03:16.673Z,100.00
2023-01-12T08:05:44.036Z,100.00
2023-01-12T08:08:11.057Z,100.00
2023-01-12T08:10:38.204Z,100.00
2023-01-12T08:13:05.191Z,100.00
2023-01-12T08:15:38.929Z,100.00
2023-01-12T08:18:13.955Z,100.00
2023-01-12T08:20:41.237Z,100.00
2023-01-12T08:23:24.038Z,100.00
2023-01-12T08:25:59.207Z,100.00
2023-01-12T08:28:37.165Z,100.00
2023-01-12T08:31:05.778Z,100.00
2023-01-12T08:33:32.841Z,100.00
2023-01-12T08:35:59.866Z,100.00
2023-01-12T08:38:26.949Z,100.00
2023-01-12T08:41:12.753Z,100.00
2023-01-12T08:43:58.186Z,100.00
2023-01-12T08:46:25.240Z,100.00
2023-01-12T08:48:53.939Z,100.00
2023-01-12T08:51:21.177Z,100.00
2023-01-12T08:53:49.143Z,98.67
2023-01-12T08:56:16.149Z,97.25
2023-01-12T08:58:43.336Z,95.25
2023-01-12T09:01:13.939Z,91.45
2023-01-12T09:03:41.603Z,89.67
2023-01-12T09:06:21.711Z,87.54
2023-01-12T09:08:53.111Z,85.72
2023-01-12T09:11:20.421Z,83.22
2023-01-12T09:13:47.569Z,77.94
2023-01-12T09:16:16.778Z,77.46
2023-01-12T09:18:44.259Z,77.63
2023-01-12T09:21:15.857Z,77.77
2023-01-12T09:23:43.968Z,77.83
2023-01-12T09:26:15.159Z,78.22
2023-01-12T09:28:45.747Z,76.57
2023-01-12T09:31:19.926Z,75.02
2023-01-12T09:33:47.637Z,73.93
2023-01-12T09:36:18.265Z,71.44
2023-01-12T09:38:47.179Z,69.89
2023-01-12T09:41:57.579Z,68.27
2023-01-12T09:45:00.409Z,66.38
2023-01-12T09:47:56.386Z,64.73
2023-01-12T09:50:29.146Z,63.00
2023-01-12T09:53:11.880Z,61.15
2023-01-12T09:56:12.231Z,59.42
2023-01-12T09:59:05.438Z,57.86
2023-01-12T10:01:32.626Z,56.41
2023-01-12T10:04:01.670Z,54.57
2023-01-12T10:06:29.088Z,54.08
2023-01-12T10:09:20.517Z,52.50
2023-01-12T10:12:05.123Z,51.79
2023-01-12T10:15:03.830Z,51.44
2023-01-12T10:17:55.105Z,49.50
2023-01-12T10:20:39.381Z,49.70
2023-01-12T10:23:11.423Z,49.58
2023-01-12T10:25:55.801Z,48.44
2023-01-12T10:28:33.590Z,48.08
2023-01-12T10:31:01.447Z,47.76
2023-01-12T10:33:31.768Z,47.14
2023-01-12T10:36:08.854Z,47.30
2023-01-12T10:38:56.868Z,46.01
2023-01-12T10:41:29.196Z,45.75
2023-01-12T10:43:58.901Z,45.21
2023-01-12T10:46:34.392Z,45.63
2023-01-12T10:49:33.879Z,44.94
2023-01-12T10:52:23.998Z,43.76
2023-01-12T10:54:51.052Z,44.21
2023-01-12T10:57:23.821Z,43.37
2023-01-12T10:59:55.943Z,43.44
2023-01-12T11:02:26.352Z,43.17
2023-01-12T11:04:54.690Z,43.23
2023-01-12T11:07:26.574Z,42.77
2023-01-12T11:09:55.271Z,42.90
2023-01-12T11:12:42.708Z,43.23
2023-01-12T11:15:12.814Z,43.18
2023-01-12T11:17:43.895Z,43.64
2023-01-12T11:20:39.744Z,43.67
2023-01-12T11:23:19.791Z,43.95
2023-01-12T11:25:49.893Z,43.79
2023-01-12T11:28:25.850Z,43.73
2023-01-12T11:31:14.797Z,44.65
2023-01-12T11:33:49.509Z,45.11
2023-01-12T11:36:37.551Z,45.70
2023-01-12T11:39:15.307Z,45.65
2023-01-12T11:42:21.155Z,46.20
2023-01-12T11:45:17.782Z,46.54
2023-01-12T11:47:56.529Z,47.19
2023-01-12T11:50:36.500Z,47.66
2023-01-12T11:53:05.974Z,47.49
2023-01-12T11:56:26.687Z,49.08
2023-01-12T11:59:20.429Z,48.81
2023-01-12T12:01:53.039Z,48.54
2023-01-12T12:04:48.134Z,49.40
2023-01-12T12:07:27.756Z,49.88
2023-01-12T12:10:42.410Z,49.99
2023-01-12T12:13:27.761Z,50.78
2023-01-12T12:16:09.418Z,51.11
2023-01-12T12:19:09.455Z,51.69
2023-01-12T12:21:55.690Z,51.97
2023-01-12T12:24:54.352Z,52.40
2023-01-12T12:28:02.717Z,53.32
2023-01-12T12:31:00.310Z,53.62
2023-01-12T12:34:31.752Z,54.00
2023-01-12T12:37:55.695Z,54.64
2023-01-12T12:40:28.500Z,55.41
2023-01-12T12:43:42.016Z,56.17
2023-01-12T12:46:49.091Z,57.06
2023-01-12T12:49:22.254Z,57.61
2023-01-12T12:51:51.020Z,58.23
2023-01-12T12:54:20.985Z,58.34
2023-01-12T12:56:48.974Z,58.96
2023-01-12T12:59:34.305Z,59.20
2023-01-12T13:02:03.558Z,59.15
2023-01-12T13:04:42.883Z,59.15
2023-01-12T13:07:21.330Z,59.37
2023-01-12T13:09:50.013Z,59.57
2023-01-12T13:12:37.883Z,60.22
2023-01-12T13:15:22.074Z,60.81
2023-01-12T13:17:52.923Z,60.38
2023-01-12T13:20:25.567Z,61.17
2023-01-12T13:22:53.547Z,61.97
2023-01-12T13:25:20.517Z,61.90
2023-01-12T13:28:01.341Z,62.40
2023-01-12T13:30:28.322Z,62.82
2023-01-12T13:32:55.189Z,62.94
2023-01-12T13:35:45.144Z,63.66
2023-01-12T13:38:34.193Z,63.93
2023-01-12T13:41:47.229Z,64.11
2023-01-12T13:44:31.649Z,64.26
2023-01-12T13:47:16.153Z,64.32
2023-01-12T13:49:57.147Z,64.54
2023-01-12T13:52:37.188Z,64.93
2023-01-12T13:55:20.391Z,65.04
2023-01-12T13:58:01.206Z,65.24
2023-01-12T14:00:32.348Z,65.23
2023-01-12T14:03:01.622Z,65.32
2023-01-12T14:05:42.377Z,64.95
2023-01-12T14:08:32.273Z,65.19
2023-01-12T14:11:28.979Z,65.44
2023-01-12T14:14:44.101Z,65.41
2023-01-12T14:17:51.909Z,65.61
2023-01-12T14:20:26.655Z,65.81
2023-01-12T14:23:27.278Z,66.37
2023-01-12T14:26:09.321Z,66.10
2023-01-12T14:28:38.884Z,66.39
2023-01-12T14:31:15.491Z,66.60
2023-01-12T14:33:53.772Z,67.03
2023-01-12T14:36:42.441Z,67.04
2023-01-12T14:39:17.039Z,67.50
2023-01-12T14:42:07.975Z,67.81
2023-01-12T14:44:57.538Z,68.09
2023-01-12T14:47:33.179Z,68.27
2023-01-12T14:50:12.876Z,68.59
2023-01-12T14:52:45.849Z,68.51
2023-01-12T14:55:42.378Z,68.79
2023-01-12T14:58:21.404Z,69.24
2023-01-12T15:00:48.424Z,69.08
2023-01-12T15:03:28.814Z,68.84
2023-01-12T15:06:02.728Z,68.88
2023-01-12T15:08:31.204Z,69.28
2023-01-12T15:11:05.001Z,69.67
2023-01-12T15:13:34.751Z,70.09
2023-01-12T15:16:22.658Z,69.70
2023-01-12T15:19:16.101Z,70.22
2023-01-12T15:22:04.577Z,70.68
2023-01-12T15:24:54.504Z,70.71
2023-01-12T15:27:23.593Z,70.84
2023-01-12T15:29:51.225Z,71.07
2023-01-12T15:32:52.132Z,71.55
2023-01-12T15:35:24.138Z,71.84
2023-01-12T15:37:55.200Z,72.04
2023-01-12T15:40:24.704Z,72.43
2023-01-12T15:42:53.514Z,72.52
2023-01-12T15:45:29.547Z,72.67
2023-01-12T15:47:56.692Z,72.92
2023-01-12T15:50:24.156Z,73.13
2023-01-12T15:52:51.328Z,73.03
2023-01-12T15:55:21.295Z,73.35
2023-01-12T15:57:50.822Z,72.57
2023-01-12T16:00:23.726Z,72.89
2023-01-12T16:02:52.393Z,73.45
2023-01-12T16:05:23.474Z,73.33
2023-01-12T16:07:50.748Z,73.91
2023-01-12T16:10:18.421Z,74.39
2023-01-12T16:12:45.998Z,74.70
2023-01-12T16:15:21.389Z,74.86
2023-01-12T16:17:48.977Z,75.20
2023-01-12T16:20:19.170Z,74.84
2023-01-12T16:22:47.644Z,75.41
2023-01-12T16:25:15.768Z,75.59
2023-01-12T16:27:43.049Z,74.23
2023-01-12T16:30:14.602Z,75.72
2023-01-12T16:32:46.492Z,76.39
2023-01-12T16:35:15.504Z,76.56
2023-01-12T16:37:42.930Z,76.43
2023-01-12T16:40:11.425Z,76.03
2023-01-12T16:42:38.617Z,77.20
2023-01-12T16:45:06.396Z,77.61
2023-01-12T16:47:33.536Z,77.66
2023-01-12T16:50:00.658Z,77.24
2023-01-12T16:52:27.822Z,78.23
2023-01-12T16:54:54.906Z,78.39
2023-01-12T16:57:22.029Z,78.54
2023-01-12T16:59:50.877Z,78.67
2023-01-12T17:02:19.010Z,78.77
2023-01-12T17:04:48.519Z,78.94
2023-01-12T17:07:15.754Z,78.95
2023-01-12T17:09:43.146Z,79.69
2023-01-12T17:12:10.948Z,79.23
2023-01-12T17:14:38.212Z,79.55
2023-01-12T17:17:09.392Z,79.91
2023-01-12T17:19:38.793Z,80.07
2023-01-12T17:22:08.115Z,80.69
2023-01-12T17:24:39.680Z,79.94
2023-01-12T17:27:07.989Z,80.39
2023-01-12T17:29:35.287Z,81.06
2023-01-12T17:32:05.296Z,82.01
2023-01-12T17:34:38.221Z,81.42
2023-01-12T17:37:08.515Z,82.24
2023-01-12T17:39:40.717Z,82.61
2023-01-12T17:42:51.662Z,83.04
2023-01-12T17:45:18.866Z,82.99
2023-01-12T17:47:45.907Z,83.16
2023-01-12T17:50:13.615Z,83.54
2023-01-12T17:52:40.711Z,82.89
2023-01-12T17:55:08.081Z,83.11
2023-01-12T17:57:36.731Z,83.38
2023-01-12T18:00:10.312Z,83.64
2023-01-12T18:02:37.339Z,83.97
2023-01-12T18:05:04.802Z,83.77
2023-01-12T18:07:32.146Z,83.75
2023-01-12T18:09:59.224Z,83.48
2023-01-12T18:12:27.479Z,83.99
2023-01-12T18:14:58.433Z,84.26
2023-01-12T18:17:25.523Z,84.44
2023-01-12T18:19:52.828Z,84.55
2023-01-12T18:22:19.957Z,84.65
2023-01-12T18:24:47.214Z,84.22
2023-01-12T18:27:14.317Z,84.10
2023-01-12T18:29:41.460Z,84.21
2023-01-12T18:32:09.265Z,84.33
2023-01-12T18:34:38.365Z,84.17
2023-01-12T18:37:05.434Z,84.06
2023-01-12T18:39:32.595Z,84.21
2023-01-12T18:42:18.594Z,84.09
2023-01-12T18:44:46.486Z,84.21
2023-01-12T18:47:35.438Z,83.38
2023-01-12T18:50:31.332Z,83.59
2023-01-12T18:53:17.321Z,83.55
2023-01-12T18:55:44.445Z,83.66
2023-01-12T18:58:11.489Z,84.03
2023-01-12T19:00:38.903Z,83.88
2023-01-12T19:03:06.298Z,83.91
2023-01-12T19:05:41.353Z,83.55
2023-01-12T19:08:27.338Z,83.55
2023-01-12T19:10:55.464Z,83.68
2023-01-12T19:13:41.429Z,83.61
2023-01-12T19:16:32.653Z,83.49
2023-01-12T19:18:59.674Z,83.16
2023-01-12T19:21:45.536Z,83.05
2023-01-12T19:24:31.151Z,83.13
2023-01-12T19:27:16.802Z,83.22
2023-01-12T19:29:44.939Z,82.33
2023-01-12T19:32:12.046Z,82.94
2023-01-12T19:34:39.037Z,82.29
2023-01-12T19:37:06.383Z,82.02
2023-01-12T19:40:00.903Z,82.31
2023-01-12T19:42:47.978Z,82.42
2023-01-12T19:45:15.101Z,82.26
2023-01-12T19:47:42.392Z,81.04
2023-01-12T19:50:12.438Z,81.69
2023-01-12T19:52:42.362Z,80.27
2023-01-12T19:55:13.245Z,80.48
2023-01-12T19:57:43.058Z,80.27
2023-01-12T20:00:15.200Z,79.76
2023-01-12T20:02:44.158Z,80.28
2023-01-12T20:05:13.645Z,80.43
2023-01-12T20:07:40.859Z,80.53
2023-01-12T20:10:09.067Z,80.75
2023-01-12T20:12:36.129Z,81.02
2023-01-12T20:15:03.565Z,80.87
2023-01-12T20:17:30.608Z,80.78
2023-01-12T20:19:57.645Z,80.69
2023-01-12T20:22:24.691Z,79.77
2023-01-12T20:24:51.696Z,80.04
2023-01-12T20:27:18.922Z,80.10
2023-01-12T20:29:45.959Z,80.15
2023-01-12T20:32:12.985Z,80.61
2023-01-12T20:34:39.997Z,80.59
2023-01-12T20:37:07.043Z,80.45
2023-01-12T20:39:34.414Z,80.90
2023-01-12T20:42:01.499Z,80.14
2023-01-12T20:44:28.873Z,80.04
2023-01-12T20:46:56.188Z,78.89
2023-01-12T20:49:23.339Z,79.21
2023-01-12T20:51:50.457Z,79.44
2023-01-12T20:54:17.593Z,79.18
2023-01-12T20:56:44.609Z,79.34
2023-01-12T20:59:12.814Z,79.63
2023-01-12T21:01:39.927Z,79.64
2023-01-12T21:04:07.009Z,79.35
2023-01-12T21:06:34.058Z,78.13
2023-01-12T21:09:01.272Z,79.03
2023-01-12T21:11:28.291Z,79.76
2023-01-12T21:13:56.837Z,77.71
2023-01-12T21:16:23.917Z,77.55
2023-01-12T21:18:51.848Z,77.70
2023-01-12T21:21:18.901Z,78.08
2023-01-12T21:23:46.556Z,77.31
2023-01-12T21:26:13.869Z,77.69
2023-01-12T21:28:41.181Z,77.64
2023-01-12T21:31:12.025Z,78.16
2023-01-12T21:33:39.153Z,77.84
2023-01-12T21:36:07.063Z,77.05
2023-01-12T21:38:34.295Z,77.36
2023-01-12T21:41:04.460Z,77.47
2023-01-12T21:43:32.434Z,76.67
2023-01-12T21:46:07.430Z,76.76
2023-01-12T21:48:34.837Z,77.00
2023-01-12T21:51:07.527Z,76.56
2023-01-12T21:53:35.057Z,76.46
2023-01-12T21:56:04.848Z,75.36
2023-01-12T21:58:35.098Z,75.77
2023-01-12T22:01:12.087Z,76.35
2023-01-12T22:03:39.969Z,75.77
2023-01-12T22:06:10.911Z,74.24
2023-01-12T22:08:41.245Z,75.70
2023-01-12T22:11:12.198Z,75.15
2023-01-12T22:13:40.015Z,75.77
2023-01-12T22:16:10.697Z,76.33
2023-01-12T22:18:39.072Z,76.65
2023-01-12T22:21:09.591Z,76.29
2023-01-12T22:23:38.001Z,76.11
2023-01-12T22:26:10.721Z,75.00
2023-01-12T22:28:40.951Z,76.00
2023-01-12T22:31:12.470Z,75.32
2023-01-12T22:33:40.248Z,76.50
2023-01-12T22:36:08.188Z,76.72
2023-01-12T22:38:35.476Z,75.57
2023-01-12T22:41:07.883Z,75.89
2023-01-12T22:43:40.690Z,75.25
2023-01-12T22:46:20.934Z,76.81
2023-01-12T22:48:50.289Z,75.32
2023-01-12T22:51:20.279Z,75.76
2023-01-12T22:53:48.443Z,75.51
2023-01-12T22:56:16.150Z,75.99
2023-01-12T22:58:54.162Z,76.51
2023-01-12T23:01:25.552Z,75.23
2023-01-12T23:03:54.926Z,74.97
2023-01-12T23:06:23.120Z,75.21
2023-01-12T23:08:50.747Z,75.46
2023-01-12T23:11:21.083Z,76.26
2023-01-12T23:13:48.984Z,76.50
2023-01-12T23:16:18.295Z,76.89
2023-01-12T23:18:47.482Z,77.06
2023-01-12T23:21:19.191Z,76.97
2023-01-12T23:23:53.550Z,77.07
2023-01-12T23:26:24.982Z,76.01
2023-01-12T23:28:56.303Z,75.93
2023-01-12T23:31:27.724Z,76.74
2023-01-12T23:33:57.072Z,77.25
2023-01-12T23:36:27.615Z,77.64
2023-01-12T23:39:00.451Z,76.57
2023-01-12T23:41:29.397Z,76.32
2023-01-12T23:44:02.091Z,76.79
2023-01-12T23:46:33.242Z,77.07
2023-01-12T23:49:00.429Z,76.99
2023-01-12T23:51:29.634Z,77.57
2023-01-12T23:54:00.575Z,77.40
2023-01-12T23:56:32.003Z,76.75
2023-01-12T23:58:59.345Z,77.03
